Time;durP1;ratioP1;P1;durP2;ratioP2;P2;SDS_P1;SDS_P2;PMS_P1;PMS_P2;Temp;Humidity;BMP_temperature;BMP_pressure;BME280_temperature;BME280_humidity;BME280_pressure;Samples;Min_cycle;Max_cycle;Signal;HPM_P1;HPM_P2
2022/01/17 00:00:08;;;;;;;9.68;3.47;;;;;;;4.07;80.39;99835.09;5063034;28;20048;-57
2022/01/17 00:02:35;;;;;;;12.02;3.95;;;;;;;4.08;79.74;99818.88;5056841;28;20064;-57
2022/01/17 00:05:02;;;;;;;11.57;3.58;;;;;;;4.10;79.62;99824.00;5057942;28;20060;-57
2022/01/17 00:07:29;;;;;;;9.90;3.47;;;;;;;4.13;79.23;99824.00;5056781;28;20493;-57
2022/01/17 00:09:56;;;;;;;9.93;3.53;;;;;;;4.13;78.57;99816.31;5055996;28;20576;-57
2022/01/17 00:12:24;;;;;;;10.10;3.60;;;;;;;4.14;78.57;99820.59;5055878;28;20060;-57
2022/01/17 00:14:55;;;;;;;8.82;3.22;;;;;;;4.18;78.27;99812.09;5055629;28;20458;-57
2022/01/17 00:17:32;;;;;;;11.45;2.83;;;;;;;4.18;78.08;99817.22;5058407;28;20074;-57
2022/01/17 00:20:09;;;;;;;8.23;2.95;;;;;;;4.16;78.10;99824.00;5057330;28;20075;-57
2022/01/17 00:22:36;;;;;;;14.27;3.38;;;;;;;4.15;77.61;99821.44;5057112;28;20044;-57
2022/01/17 00:25:04;;;;;;;10.90;2.70;;;;;;;4.15;77.10;99812.03;5054987;28;20044;-57
2022/01/17 00:27:32;;;;;;;8.98;2.80;;;;;;;4.16;76.94;99824.00;5054681;28;20434;-57
2022/01/17 00:30:03;;;;;;;8.88;2.83;;;;;;;4.18;77.41;99812.09;5056717;28;20157;-57
2022/01/17 00:32:30;;;;;;;8.90;2.90;;;;;;;4.19;76.95;99812.94;5055720;28;20813;-57
2022/01/17 00:34:57;;;;;;;10.68;2.80;;;;;;;4.21;76.51;99812.09;5055946;28;20075;-57
2022/01/17 00:37:25;;;;;;;9.80;3.13;;;;;;;4.21;77.23;99812.09;5058739;28;20547;-57
2022/01/17 00:39:52;;;;;;;11.57;3.08;;;;;;;4.21;77.11;99812.09;5062876;28;20138;-57
2022/01/17 00:42:19;;;;;;;7.07;3.45;;;;;;;4.21;76.46;99822.34;5061464;28;20050;-57
2022/01/17 00:44:48;;;;;;;11.75;2.30;;;;;;;4.26;76.41;99802.69;5054221;28;20122;-56
2022/01/17 00:47:16;;;;;;;9.07;2.58;;;;;;;4.27;75.95;99795.84;5054582;28;20056;-57
2022/01/17 00:49:43;;;;;;;9.35;2.47;;;;;;;4.26;76.65;99799.28;5055590;28;20505;-57
2022/01/17 00:52:11;;;;;;;10.93;2.45;;;;;;;4.26;76.48;99784.72;5054614;28;20054;-57
2022/01/17 00:54:38;;;;;;;11.60;2.50;;;;;;;4.22;76.30;99788.16;5054516;28;20045;-57
2022/01/17 00:57:05;;;;;;;14.38;2.75;;;;;;;4.20;76.48;99764.19;5057408;28;20052;-57
2022/01/17 00:59:33;;;;;;;9.13;2.50;;;;;;;4.21;76.21;99770.19;5056905;28;20074;-57
2022/01/17 01:02:00;;;;;;;13.13;2.47;;;;;;;4.21;75.80;99765.91;5057843;28;20048;-57
2022/01/17 01:04:28;;;;;;;16.42;2.50;;;;;;;4.20;75.78;99765.91;5058274;28;20072;-57
2022/01/17 01:06:56;;;;;;;11.75;2.83;;;;;;;4.20;76.13;99743.69;5055299;28;20056;-57
2022/01/17 01:09:25;;;;;;;10.63;2.22;;;;;;;4.18;76.12;99735.13;5058659;28;20098;-57
2022/01/17 01:11:52;;;;;;;12.02;2.45;;;;;;;4.18;76.12;99719.75;5053981;28;20074;-57
2022/01/17 01:14:19;;;;;;;11.25;2.22;;;;;;;4.18;76.23;99752.22;5056933;28;20068;-57
2022/01/17 01:16:46;;;;;;;17.50;2.72;;;;;;;4.19;76.18;99734.28;5058142;28;20052;-57
2022/01/17 01:27:54;;;;;;;12.18;2.20;;;;;;;4.20;76.82;99697.50;5054530;28;20059;-56
2022/01/17 01:30:24;;;;;;;9.75;1.92;;;;;;;4.19;76.49;99690.66;5055784;28;20051;-57
2022/01/17 01:32:55;;;;;;;8.95;2.28;;;;;;;4.19;77.10;99679.56;5055016;28;20048;-57
2022/01/17 01:35:25;;;;;;;10.15;2.08;;;;;;;4.18;77.52;99686.41;5056666;28;20071;-57
2022/01/17 01:37:54;;;;;;;14.82;2.65;;;;;;;4.16;77.72;99659.00;5059338;28;20435;-57
2022/01/17 01:40:22;;;;;;;7.35;2.03;;;;;;;4.18;77.41;99653.03;5057979;28;20071;-57
2022/01/17 01:42:52;;;;;;;10.70;2.00;;;;;;;4.20;76.94;99633.38;5058055;28;21828;-56
2022/01/17 01:45:20;;;;;;;12.73;1.95;;;;;;;4.19;77.22;99623.97;5058540;28;20045;-56
2022/01/17 01:47:48;;;;;;;11.02;2.25;;;;;;;4.20;77.56;99620.56;5057824;28;21077;-57
2022/01/17 01:50:16;;;;;;;8.98;1.98;;;;;;;4.18;77.27;99632.53;5059686;28;20052;-56
2022/01/17 01:52:43;;;;;;;10.90;1.85;;;;;;;4.19;77.44;99634.25;5058893;28;20060;-56
2022/01/17 01:55:16;;;;;;;15.07;2.47;;;;;;;4.20;77.50;99620.56;5058851;28;20046;-56
2022/01/17 01:57:44;;;;;;;12.10;2.13;;;;;;;4.21;76.85;99596.63;5065090;28;20040;-55
2022/01/17 02:00:14;;;;;;;14.23;2.08;;;;;;;4.22;77.77;99611.16;5058206;28;20437;-56
2022/01/17 02:02:41;;;;;;;12.10;2.17;;;;;;;4.24;77.35;99583.78;5057052;28;20429;-56
2022/01/17 02:05:09;;;;;;;13.40;2.47;;;;;;;4.21;77.53;99558.13;5058800;28;20805;-56
2022/01/17 02:07:38;;;;;;;16.58;2.25;;;;;;;4.22;77.87;99572.66;5057678;28;20056;-57
2022/01/17 02:10:06;;;;;;;14.13;1.98;;;;;;;4.20;78.56;99563.28;5056329;28;20494;-56
2022/01/17 02:12:35;;;;;;;11.38;2.13;;;;;;;4.19;78.02;99588.06;5063331;28;20052;-56
2022/01/17 02:15:02;;;;;;;12.95;2.60;;;;;;;4.18;78.56;99591.50;5059806;28;20048;-57
2022/01/17 02:17:33;;;;;;;11.65;1.95;;;;;;;4.19;78.29;99572.69;5059818;28;20052;-57
2022/01/17 02:20:07;;;;;;;7.03;1.80;;;;;;;4.21;78.66;99554.72;5057584;28;20049;-57
2022/01/17 02:22:34;;;;;;;17.65;2.05;;;;;;;4.20;78.70;99548.72;5059227;28;20093;-57
2022/01/17 02:25:02;;;;;;;9.95;2.10;;;;;;;4.23;78.80;99553.00;5061650;28;20052;-57
2022/01/17 02:27:29;;;;;;;8.45;2.15;;;;;;;4.24;78.19;99568.41;5058100;28;20056;-57
2022/01/17 02:29:56;;;;;;;12.43;1.85;;;;;;;4.24;78.60;99573.53;5056670;28;20045;-57
2022/01/17 02:32:23;;;;;;;7.80;2.05;;;;;;;4.23;78.72;99533.34;5061513;28;20048;-57
2022/01/17 02:34:50;;;;;;;12.77;2.30;;;;;;;4.26;78.90;99545.31;5063072;28;20055;-57
2022/01/17 02:37:19;;;;;;;10.38;1.98;;;;;;;4.26;78.41;99535.91;5061620;28;20060;-57
2022/01/17 02:39:47;;;;;;;13.48;2.00;;;;;;;4.26;79.07;99528.19;5060387;28;20151;-57
2022/01/17 02:42:19;;;;;;;17.73;2.15;;;;;;;4.26;79.13;99517.94;5057358;28;20053;-57
2022/01/17 02:44:46;;;;;;;10.55;2.10;;;;;;;4.27;79.32;99540.16;5058600;28;20117;-57
2022/01/17 02:47:17;;;;;;;12.48;2.10;;;;;;;4.25;80.07;99526.50;5059598;28;20061;-57
2022/01/17 02:49:44;;;;;;;17.23;2.53;;;;;;;4.26;79.83;99520.50;5060436;28;20479;-57
2022/01/17 02:52:11;;;;;;;8.75;2.05;;;;;;;4.28;80.07;99521.34;5056094;28;20052;-57
2022/01/17 02:54:40;;;;;;;11.77;2.25;;;;;;;4.29;80.40;99494.84;5061376;28;20044;-57
2022/01/17 02:57:08;;;;;;;14.77;2.22;;;;;;;4.30;80.67;99483.72;5062306;28;20048;-57
2022/01/17 02:59:35;;;;;;;8.82;1.83;;;;;;;4.30;81.48;99488.84;5059432;28;20052;-58
2022/01/17 03:02:03;;;;;;;9.48;1.63;;;;;;;4.29;81.36;99474.31;5064114;28;20045;-58
2022/01/17 03:04:31;;;;;;;8.65;1.58;;;;;;;4.27;82.47;99468.34;5060350;28;20048;-58
2022/01/17 03:06:58;;;;;;;8.80;1.70;;;;;;;4.26;83.12;99445.25;5066939;28;20053;-57
2022/01/17 03:09:29;;;;;;;11.95;2.60;;;;;;;4.22;83.11;99439.28;5062862;28;20067;-58
2022/01/17 03:11:57;;;;;;;8.27;1.90;;;;;;;4.18;84.12;99418.78;5065323;28;20053;-58
2022/01/17 03:14:24;;;;;;;7.50;1.25;;;;;;;4.15;84.03;99414.50;5059062;28;20041;-58
2022/01/17 03:16:51;;;;;;;9.93;1.30;;;;;;;4.14;84.67;99420.47;5060469;28;20051;-58
2022/01/17 03:19:18;;;;;;;10.48;1.52;;;;;;;4.10;84.66;99388.00;5057825;28;20052;-58
2022/01/17 03:21:46;;;;;;;11.73;1.83;;;;;;;4.09;84.98;99376.03;5058023;28;20497;-58
2022/01/17 03:24:13;;;;;;;9.20;1.77;;;;;;;4.08;85.07;99382.03;5057716;28;20098;-57
2022/01/17 03:26:40;;;;;;;9.15;1.50;;;;;;;4.10;85.07;99370.06;5056423;28;20057;-57
2022/01/17 03:29:08;;;;;;;6.68;1.23;;;;;;;4.08;85.78;99370.06;5057185;28;20067;-57
2022/01/17 03:31:36;;;;;;;8.98;1.10;;;;;;;4.07;85.99;99377.75;5056028;28;20048;-57
2022/01/17 03:34:03;;;;;;;8.80;1.40;;;;;;;4.05;87.01;99366.66;5055921;28;20048;-57
2022/01/17 03:36:30;;;;;;;5.07;1.55;;;;;;;4.03;87.46;99360.69;5056537;28;20056;-57
2022/01/17 03:38:57;;;;;;;8.60;1.27;;;;;;;4.01;87.55;99365.81;5055782;28;20057;-57
2022/01/17 03:41:25;;;;;;;8.05;1.42;;;;;;;3.99;88.01;99380.34;5057312;28;20045;-57
2022/01/17 03:43:52;;;;;;;7.63;1.20;;;;;;;4.00;88.47;99373.53;5068456;28;20071;-57
2022/01/17 03:46:20;;;;;;;4.00;1.17;;;;;;;3.98;88.68;99367.53;5066461;28;20049;-57
2022/01/17 03:48:48;;;;;;;5.53;1.10;;;;;;;4.00;88.32;99335.06;5066970;28;20075;-57
2022/01/17 03:51:15;;;;;;;10.32;0.98;;;;;;;3.99;88.07;99329.06;5068806;28;20410;-57
2022/01/17 03:53:42;;;;;;;3.90;1.05;;;;;;;4.00;88.18;99324.81;5065576;28;20051;-57
2022/01/17 03:56:09;;;;;;;5.40;1.40;;;;;;;4.03;87.92;99320.50;5067205;28;20391;-57
2022/01/17 03:58:36;;;;;;;7.22;1.25;;;;;;;4.04;88.34;99306.81;5065827;28;20040;-57
2022/01/17 04:01:04;;;;;;;8.77;1.00;;;;;;;4.08;88.61;99302.53;5071079;28;20059;-57
2022/01/17 04:03:33;;;;;;;7.93;1.25;;;;;;;4.08;88.64;99290.56;5067074;28;20056;-58
2022/01/17 04:06:00;;;;;;;8.15;1.20;;;;;;;4.09;89.39;99305.09;5065492;28;20045;-58
2022/01/17 04:08:27;;;;;;;7.90;1.25;;;;;;;4.10;89.92;99275.16;5067034;28;20477;-58
2022/01/17 04:10:54;;;;;;;5.15;1.05;;;;;;;4.06;89.72;99269.22;5064515;28;20055;-57
2022/01/17 04:13:22;;;;;;;6.00;1.05;;;;;;;4.06;90.35;99252.97;5064139;28;20079;-57
2022/01/17 04:15:50;;;;;;;6.28;1.25;;;;;;;4.04;90.86;99245.28;5065209;28;20123;-57
2022/01/17 04:18:23;;;;;;;9.23;1.65;;;;;;;4.08;90.30;99246.13;5068950;28;20052;-57
2022/01/17 04:20:53;;;;;;;7.10;1.50;;;;;;;4.09;90.47;99206.78;5065281;28;20048;-57
2022/01/17 04:23:20;;;;;;;5.20;1.27;;;;;;;4.07;89.99;99231.59;5064625;28;20064;-57
2022/01/17 04:25:48;;;;;;;7.50;1.10;;;;;;;4.08;90.53;99251.25;5069038;28;20474;-57
2022/01/17 04:28:15;;;;;;;7.18;1.38;;;;;;;4.09;89.82;99201.66;5067192;28;20041;-57
2022/01/17 04:30:44;;;;;;;6.65;1.10;;;;;;;4.12;89.45;99212.75;5064014;28;20051;-57
2022/01/17 04:33:12;;;;;;;9.40;1.90;;;;;;;4.13;90.06;99219.59;5067065;28;20053;-57
2022/01/17 04:35:40;;;;;;;8.13;1.02;;;;;;;4.13;90.18;99216.16;5067583;28;20378;-57
2022/01/17 04:38:12;;;;;;;4.07;1.35;;;;;;;4.16;90.03;99217.84;5065709;28;20044;-57
2022/01/17 04:40:40;;;;;;;5.28;1.00;;;;;;;4.18;89.67;99203.34;5064684;28;20527;-57
2022/01/17 04:43:17;;;;;;;6.22;1.38;;;;;;;4.19;90.02;99212.75;5066427;28;20061;-57
2022/01/17 04:45:44;;;;;;;3.38;0.80;;;;;;;4.22;89.95;99203.31;5068911;28;20040;-57
2022/01/17 04:48:11;;;;;;;4.07;0.52;;;;;;;4.27;89.09;99200.72;5065970;28;20085;-57
2022/01/17 04:50:38;;;;;;;3.65;0.80;;;;;;;4.29;89.07;99198.97;5065941;28;20059;-57
2022/01/17 04:53:07;;;;;;;5.93;0.80;;;;;;;4.35;88.89;99165.59;5065489;28;20063;-57
2022/01/17 04:55:37;;;;;;;3.20;0.70;;;;;;;4.36;87.66;99155.31;5067301;28;20145;-57
2022/01/17 04:58:04;;;;;;;3.20;0.60;;;;;;;4.40;87.92;99162.13;5064220;28;20060;-57
2022/01/17 05:00:32;;;;;;;4.63;0.80;;;;;;;4.41;88.60;99156.13;5065717;28;20470;-56
2022/01/17 05:02:59;;;;;;;3.50;0.80;;;;;;;4.40;88.09;99156.13;5068532;28;20053;-57
2022/01/17 05:05:26;;;;;;;2.88;0.60;;;;;;;4.42;87.72;99129.59;5065883;28;20059;-57
2022/01/17 05:07:53;;;;;;;2.88;0.77;;;;;;;4.44;88.28;99122.75;5065280;28;20044;-57
2022/01/17 05:10:23;;;;;;;3.25;0.70;;;;;;;4.44;87.75;99112.47;5069284;28;20048;-57
2022/01/17 05:12:52;;;;;;;2.63;0.65;;;;;;;4.49;87.00;99103.88;5071807;28;20052;-57
2022/01/17 05:15:27;;;;;;;2.47;0.70;;;;;;;4.52;86.56;99109.84;5070246;28;20094;-56
2022/01/17 05:18:01;;;;;;;5.72;0.80;;;;;;;4.54;86.34;99089.28;5069517;28;20484;-57
2022/01/17 05:20:28;;;;;;;2.58;0.43;;;;;;;4.56;86.95;99093.53;5071969;28;20048;-57
2022/01/17 05:22:56;;;;;;;2.45;0.73;;;;;;;4.57;87.33;99077.28;5067231;28;20397;-57
2022/01/17 05:25:23;;;;;;;4.65;0.95;;;;;;;4.59;86.55;99085.81;5067307;28;20489;-57
2022/01/17 05:27:52;;;;;;;4.22;0.82;;;;;;;4.64;86.40;99093.44;5073192;28;20076;-56
2022/01/17 05:30:21;;;;;;;3.47;0.77;;;;;;;4.67;86.51;99111.38;5070372;28;20371;-57
2022/01/17 05:32:50;;;;;;;4.80;0.82;;;;;;;4.71;85.83;99125.91;5066986;28;20048;-57
2022/01/17 05:35:18;;;;;;;4.30;0.70;;;;;;;4.74;85.90;99142.13;5068204;28;20056;-57
2022/01/17 05:37:46;;;;;;;5.75;0.95;;;;;;;4.77;85.64;99178.91;5071862;28;20071;-56
2022/01/17 05:40:16;;;;;;;9.43;1.17;;;;;;;4.74;83.52;99295.31;5070482;28;20188;-57
2022/01/17 05:42:43;;;;;;;1.00;0.20;;;;;;;3.92;81.32;99281.25;5073741;28;20045;-57
2022/01/17 05:45:14;;;;;;;1.52;0.17;;;;;;;3.10;82.29;99264.41;5071836;28;20052;-56
2022/01/17 05:47:42;;;;;;;1.95;0.25;;;;;;;2.41;84.05;99309.59;5070686;28;20470;-56
2022/01/17 05:50:10;;;;;;;0.32;0.10;;;;;;;2.02;85.83;99315.47;5069078;28;20665;-56
2022/01/17 05:52:39;;;;;;;0.90;0.10;;;;;;;1.77;86.62;99309.41;5063658;28;20564;-56
2022/01/17 05:55:08;;;;;;;0.55;0.20;;;;;;;1.54;87.49;99333.97;5063297;28;20538;-56
2022/01/17 05:57:36;;;;;;;0.95;0.20;;;;;;;1.31;88.08;99338.09;5060824;28;20053;-56
2022/01/17 06:00:04;;;;;;;0.40;0.10;;;;;;;1.19;88.57;99349.94;5059263;28;20895;-56
2022/01/17 06:02:33;;;;;;;0.10;0.10;;;;;;;1.05;89.18;99350.69;5058866;28;20060;-56
2022/01/17 06:05:00;;;;;;;0.47;0.17;;;;;;;0.94;89.37;99353.13;5058439;28;20055;-56
2022/01/17 06:07:27;;;;;;;0.65;0.20;;;;;;;0.80;90.15;99344.50;5059027;28;20055;-56
2022/01/17 06:09:54;;;;;;;1.55;0.40;;;;;;;0.75;90.18;99343.59;5057694;28;20067;-56
2022/01/17 06:12:21;;;;;;;4.25;0.50;;;;;;;0.68;90.53;99352.03;5059016;28;20049;-56
2022/01/17 06:14:49;;;;;;;7.88;0.63;;;;;;;0.63;90.23;99354.56;5060987;28;20052;-56
2022/01/17 06:17:16;;;;;;;8.90;1.20;;;;;;;0.59;90.34;99356.22;5058764;28;20056;-56
2022/01/17 06:19:45;;;;;;;2.83;0.43;;;;;;;0.56;89.81;99357.88;5058096;28;20052;-56
2022/01/17 06:22:12;;;;;;;5.57;0.77;;;;;;;0.55;89.55;99349.38;5059452;28;20063;-58
2022/01/17 06:24:39;;;;;;;2.47;0.68;;;;;;;0.53;88.29;99320.47;5055820;28;20051;-55
2022/01/17 06:27:07;;;;;;;3.00;1.15;;;;;;;0.52;88.65;99313.66;5058016;28;20456;-57
2022/01/17 06:29:34;;;;;;;2.75;0.80;;;;;;;0.52;88.22;99302.56;5058658;28;20054;-58
2022/01/17 06:32:02;;;;;;;2.03;0.57;;;;;;;0.53;88.40;99317.91;5057883;28;20048;-58
2022/01/17 06:34:29;;;;;;;2.35;0.50;;;;;;;0.55;88.46;99313.69;5057315;28;20062;-57
2022/01/17 06:36:57;;;;;;;3.00;0.70;;;;;;;0.56;88.57;99335.78;5057979;28;20045;-58
2022/01/17 06:39:25;;;;;;;3.65;1.05;;;;;;;0.56;87.65;99346.00;5059270;28;20048;-58
2022/01/17 06:41:52;;;;;;;2.70;0.80;;;;;;;0.56;87.48;99358.75;5057760;28;20048;-58
2022/01/17 06:44:19;;;;;;;5.05;1.08;;;;;;;0.56;87.14;99366.38;5058378;28;20473;-57
2022/01/17 06:46:46;;;;;;;4.43;1.55;;;;;;;0.57;88.24;99355.34;5059718;28;20061;-57
2022/01/17 06:49:14;;;;;;;7.40;1.08;;;;;;;0.57;87.67;99368.09;5057277;28;20063;-57
2022/01/17 06:51:41;;;;;;;4.57;1.02;;;;;;;0.56;86.78;99381.69;5055820;28;20059;-57
2022/01/17 06:54:09;;;;;;;3.15;0.90;;;;;;;0.56;87.70;99401.22;5060897;28;20044;-57
2022/01/17 06:56:43;;;;;;;9.70;1.40;;;;;;;0.56;87.54;99417.38;5057135;28;20048;-57
2022/01/17 06:59:11;;;;;;;7.10;1.40;;;;;;;0.56;88.12;99417.38;5056160;28;20063;-58
2022/01/17 07:01:39;;;;;;;4.28;0.80;;;;;;;0.56;87.37;99432.69;5055943;28;20521;-57
2022/01/17 07:04:06;;;;;;;4.18;0.90;;;;;;;0.58;88.39;99461.63;5055369;28;20163;-58
2022/01/17 07:06:33;;;;;;;4.35;0.80;;;;;;;0.58;86.92;99494.75;5050491;28;20924;-52
2022/01/17 07:09:01;;;;;;;8.02;1.33;;;;;;;0.59;87.32;99493.94;5054812;28;20057;-55
2022/01/17 07:11:29;;;;;;;4.75;1.58;;;;;;;0.61;86.54;99497.34;5058494;28;20397;-53
2022/01/17 07:13:56;;;;;;;4.78;0.82;;;;;;;0.65;87.21;99464.22;5056152;28;20497;-54
2022/01/17 07:16:24;;;;;;;4.07;1.20;;;;;;;0.65;86.94;99437.03;5055948;28;20066;-50
2022/01/17 07:18:51;;;;;;;3.20;0.80;;;;;;;0.64;85.38;99409.81;5055719;28;20129;-53
2022/01/17 07:21:18;;;;;;;4.80;1.02;;;;;;;0.67;85.55;99425.16;5056574;28;20577;-53
2022/01/17 07:23:45;;;;;;;6.07;1.52;;;;;;;0.69;85.86;99408.16;5056698;28;20055;-53
2022/01/17 07:26:12;;;;;;;3.58;1.38;;;;;;;0.71;84.94;99421.78;5055619;28;20067;-50
2022/01/17 07:28:41;;;;;;;4.78;1.05;;;;;;;0.74;84.36;99449.03;5057463;28;20044;-51
2022/01/17 07:31:08;;;;;;;3.20;0.80;;;;;;;0.76;83.87;99455.84;5055510;28;20409;-60
2022/01/17 07:33:37;;;;;;;3.53;0.90;;;;;;;0.77;82.77;99464.34;5055845;28;20060;-55
2022/01/17 07:36:06;;;;;;;6.68;1.55;;;;;;;0.78;82.00;99466.06;5056215;28;20057;-56
2022/01/17 07:38:34;;;;;;;4.45;1.50;;;;;;;0.82;82.59;99472.91;5054542;28;20049;-61
2022/01/17 07:41:02;;;;;;;2.80;1.25;;;;;;;0.84;82.15;99514.59;5054441;28;20048;-53
2022/01/17 07:43:29;;;;;;;4.03;1.48;;;;;;;0.84;81.32;99524.81;5056412;28;20052;-58
2022/01/17 07:46:04;;;;;;;4.93;1.45;;;;;;;0.85;79.27;99518.88;5057489;28;20060;-53
2022/01/17 07:48:56;;;;;;;3.05;1.20;;;;;;;0.85;80.51;99521.41;5058137;28;20367;-48
2022/01/17 07:51:24;;;;;;;4.65;1.35;;;;;;;0.86;80.62;99533.34;5061763;28;20076;-51
2022/01/17 07:53:51;;;;;;;5.15;1.67;;;;;;;0.85;79.44;99531.63;5059623;28;20052;-51
2022/01/17 07:56:19;;;;;;;5.43;1.10;;;;;;;0.85;76.67;99542.69;5055242;28;20052;-54
2022/01/17 07:58:46;;;;;;;6.90;1.52;;;;;;;0.87;76.41;99550.34;5055714;28;20060;-53
2022/01/17 08:01:15;;;;;;;3.65;1.08;;;;;;;0.89;77.75;99569.09;5054848;28;20048;-53
2022/01/17 08:03:42;;;;;;;5.07;1.05;;;;;;;0.91;78.03;99567.41;5054674;28;20060;-56
2022/01/17 08:06:09;;;;;;;6.32;1.02;;;;;;;0.97;77.34;99574.28;5053613;28;20049;-57
2022/01/17 08:08:37;;;;;;;6.13;1.00;;;;;;;1.00;76.94;99597.28;5052777;28;20053;-57
2022/01/17 08:11:04;;;;;;;5.57;1.48;;;;;;;1.01;76.06;99624.50;5052943;28;20048;-57
2022/01/17 08:13:31;;;;;;;5.57;1.10;;;;;;;0.99;76.81;99632.16;5053875;28;20501;-49
2022/01/17 08:15:58;;;;;;;5.43;1.40;;;;;;;1.00;76.89;99643.22;5055477;28;20474;-50
2022/01/17 08:18:27;;;;;;;5.95;1.58;;;;;;;0.98;75.59;99645.75;5054729;28;20044;-50
2022/01/17 08:20:54;;;;;;;5.28;1.52;;;;;;;0.94;74.61;99665.25;5058604;28;20451;-50
2022/01/17 08:23:21;;;;;;;4.18;1.50;;;;;;;0.93;75.52;99678.00;5068744;28;20421;-53
2022/01/17 08:25:48;;;;;;;3.72;1.10;;;;;;;0.92;73.84;99661.84;5059078;28;20052;-49
2022/01/17 08:28:15;;;;;;;3.80;1.00;;;;;;;0.93;73.92;99649.94;5055598;28;20421;-55
2022/01/17 08:30:43;;;;;;;5.05;1.20;;;;;;;0.96;72.99;99665.28;5053899;28;20159;-54
2022/01/17 08:33:10;;;;;;;5.38;1.10;;;;;;;1.01;72.41;99673.84;5054592;28;20048;-49
2022/01/17 08:35:38;;;;;;;7.45;1.40;;;;;;;1.06;72.25;99673.94;5056959;28;21876;-52
2022/01/17 08:38:06;;;;;;;5.28;1.20;;;;;;;1.08;70.91;99651.84;5054678;28;20057;-54
2022/01/17 08:40:33;;;;;;;4.85;1.67;;;;;;;1.12;72.02;99654.47;5053305;28;20106;-53
2022/01/17 08:43:00;;;;;;;5.95;1.50;;;;;;;1.16;72.35;99671.53;5055857;28;21733;-45
2022/01/17 08:45:29;;;;;;;4.20;1.38;;;;;;;1.22;72.10;99661.38;5058024;28;20052;-47
2022/01/17 08:47:56;;;;;;;5.10;1.25;;;;;;;1.25;70.23;99656.31;5054334;28;20049;-52
2022/01/17 08:50:24;;;;;;;4.45;1.38;;;;;;;1.32;69.62;99669.16;5053671;28;20063;-49
2022/01/17 08:52:53;;;;;;;3.85;1.40;;;;;;;1.39;68.08;99676.03;5053937;28;20798;-52
2022/01/17 08:55:22;;;;;;;5.90;1.55;;;;;;;1.49;68.94;99690.63;5054985;28;20060;-46
2022/01/17 08:57:50;;;;;;;3.78;1.23;;;;;;;1.55;68.37;99683.03;5052042;28;20044;-54
2022/01/17 09:00:20;;;;;;;7.35;1.70;;;;;;;1.61;65.81;99687.38;5053093;28;20118;-54
2022/01/17 09:02:47;;;;;;;3.60;1.15;;;;;;;1.67;69.00;99695.97;5052744;28;20049;-46
2022/01/17 09:05:14;;;;;;;4.70;1.15;;;;;;;1.74;67.99;99702.84;5054553;28;20455;-50
2022/01/17 09:07:42;;;;;;;11.45;1.67;;;;;;;1.82;67.90;99716.56;5052764;28;20056;-49
2022/01/17 09:10:11;;;;;;;8.25;1.95;;;;;;;1.87;64.37;99722.56;5053981;28;20067;-53
2022/01/17 09:12:38;;;;;;;6.57;1.30;;;;;;;1.94;67.78;99714.97;5055279;28;20053;-53
2022/01/17 09:15:06;;;;;;;6.32;1.67;;;;;;;1.98;67.52;99722.69;5054821;28;20116;-52
2022/01/17 09:17:33;;;;;;;4.38;1.15;;;;;;;2.04;64.78;99722.75;5052915;28;20067;-54
2022/01/17 09:20:00;;;;;;;8.32;1.70;;;;;;;2.14;66.05;99739.06;5053214;28;20060;-50
2022/01/17 09:22:29;;;;;;;10.02;1.52;;;;;;;2.15;64.61;99726.28;5054142;28;20067;-48
2022/01/17 09:24:56;;;;;;;3.88;1.13;;;;;;;2.21;63.41;99751.91;5054763;28;20052;-45
2022/01/17 09:27:25;;;;;;;5.82;1.33;;;;;;;2.26;64.24;99761.31;5054253;28;20530;-56
2022/01/17 09:29:53;;;;;;;5.40;1.27;;;;;;;2.31;64.70;99760.53;5052252;28;20057;-59
2022/01/17 09:32:20;;;;;;;2.55;0.98;;;;;;;2.38;64.43;99769.09;5055044;28;20098;-52
2022/01/17 09:34:47;;;;;;;6.80;2.30;;;;;;;2.40;64.89;99782.75;5052795;28;20060;-56
2022/01/17 09:37:15;;;;;;;4.15;0.82;;;;;;;2.45;63.33;99764.06;5050975;28;20459;-56
2022/01/17 09:39:42;;;;;;;4.50;1.00;;;;;;;2.51;61.54;99794.81;5052508;28;20511;-56
2022/01/17 09:42:11;;;;;;;4.30;0.85;;;;;;;2.60;61.07;99790.59;5053612;28;20490;-55
2022/01/17 09:44:40;;;;;;;2.05;0.90;;;;;;;2.64;60.80;99777.88;5052988;28;20056;-51
2022/01/17 09:47:09;;;;;;;4.45;0.80;;;;;;;2.70;62.11;99815.47;5051653;28;20053;-52
2022/01/17 09:49:41;;;;;;;2.63;0.80;;;;;;;2.76;60.72;99802.72;5056327;28;20052;-59
2022/01/17 09:52:33;;;;;;;1.85;0.57;;;;;;;2.81;60.13;99814.72;5063954;28;20044;-49
2022/01/17 09:55:05;;;;;;;2.97;0.55;;;;;;;2.90;58.97;99826.72;5065072;28;20048;-52
2022/01/17 09:57:35;;;;;;;2.53;0.63;;;;;;;2.96;60.67;99847.25;5065457;28;20052;-51
2022/01/17 10:00:05;;;;;;;2.92;1.08;;;;;;;2.96;63.31;99846.38;5065969;28;20056;-48
2022/01/17 10:02:32;;;;;;;3.78;0.90;;;;;;;2.92;57.10;99835.25;5068162;28;22076;-58
2022/01/17 10:05:02;;;;;;;5.22;1.00;;;;;;;2.96;59.75;99847.25;5073640;28;20106;-57
2022/01/17 10:07:57;;;;;;;6.85;1.15;;;;;;;3.01;55.04;99854.97;5066422;28;20041;-57
2022/01/17 10:10:50;;;;;;;2.85;0.60;;;;;;;3.12;55.07;99879.84;5065278;28;20056;-57
2022/01/17 10:13:23;;;;;;;6.70;0.80;;;;;;;3.18;55.31;99850.84;5071347;28;20064;-51
2022/01/17 10:16:14;;;;;;;4.75;0.70;;;;;;;3.22;54.56;99864.53;5066789;28;20049;-49
2022/01/17 10:18:49;;;;;;;3.22;0.60;;;;;;;3.24;56.01;99878.22;5069252;28;20068;-56
2022/01/17 10:21:31;;;;;;;2.38;0.63;;;;;;;3.27;55.68;99898.72;5071895;28;20047;-50
2022/01/17 10:27:02;;;;;;;2.85;0.70;;;;;;;3.18;54.50;99902.06;5063771;28;20048;-49
2022/01/17 10:35:18;;;;;;;2.78;0.68;;;;;;;3.26;51.39;99922.63;5063602;28;20066;-57
2022/01/17 10:37:57;;;;;;;5.28;0.80;;;;;;;3.31;52.98;99946.56;5068312;28;20131;-58
2022/01/17 10:40:25;;;;;;;3.97;0.80;;;;;;;3.36;53.75;99966.25;5069926;28;20074;-58
2022/01/17 10:42:54;;;;;;;2.40;0.60;;;;;;;3.42;52.12;99937.25;5073409;28;20052;-57
2022/01/17 10:45:24;;;;;;;3.08;0.70;;;;;;;3.47;55.23;99954.38;5069413;28;20435;-57
2022/01/17 10:47:59;;;;;;;9.88;1.17;;;;;;;3.45;54.73;99971.44;5071057;28;20058;-56
2022/01/17 10:50:31;;;;;;;3.50;0.70;;;;;;;3.42;53.48;99963.75;5071868;28;20587;-56
2022/01/17 10:53:01;;;;;;;2.78;0.75;;;;;;;3.39;52.55;99985.91;5069165;28;20051;-56
2022/01/17 10:55:30;;;;;;;3.25;1.00;;;;;;;3.39;56.80;99983.34;5067261;28;20060;-55
2022/01/17 10:58:02;;;;;;;4.35;0.80;;;;;;;3.41;53.30;99985.09;5070980;28;20044;-56
2022/01/17 11:00:31;;;;;;;3.03;0.52;;;;;;;3.44;54.19;99990.22;5069081;28;20045;-55
2022/01/17 11:03:01;;;;;;;4.60;0.70;;;;;;;3.49;55.51;100014.19;5068513;28;20048;-55
2022/01/17 11:05:31;;;;;;;7.45;1.00;;;;;;;3.46;53.62;100015.88;5071100;28;20048;-58
2022/01/17 11:08:02;;;;;;;2.42;0.70;;;;;;;3.39;50.97;100016.66;5071287;28;20343;-56
2022/01/17 11:10:31;;;;;;;3.70;0.90;;;;;;;3.26;50.52;100025.06;5070988;28;20059;-57
2022/01/17 11:13:02;;;;;;;3.95;0.88;;;;;;;3.19;54.36;100028.41;5068067;28;20057;-56
2022/01/17 11:15:33;;;;;;;3.80;0.65;;;;;;;3.16;57.64;100040.34;5068943;28;20477;-58
2022/01/17 11:18:10;;;;;;;5.47;0.93;;;;;;;3.13;54.09;100040.31;5073354;28;20481;-58
2022/01/17 11:20:37;;;;;;;5.00;0.68;;;;;;;3.15;56.69;100054.00;5068452;28;20052;-55
2022/01/17 11:23:04;;;;;;;3.35;1.20;;;;;;;3.13;57.58;100055.69;5070627;28;20492;-58
2022/01/17 11:25:34;;;;;;;4.60;0.80;;;;;;;3.11;59.25;100070.16;5071222;28;20382;-61
2022/01/17 11:28:02;;;;;;;3.95;0.75;;;;;;;3.07;59.79;100076.06;5070206;28;20114;-57
2022/01/17 11:30:30;;;;;;;5.90;1.10;;;;;;;3.03;55.77;100076.03;5072052;28;20496;-56
2022/01/17 11:32:58;;;;;;;2.58;0.65;;;;;;;2.88;54.23;100081.84;5069180;28;20089;-56
2022/01/17 11:35:27;;;;;;;2.85;0.68;;;;;;;2.81;53.56;100074.91;5070962;28;20054;-59
2022/01/17 11:37:58;;;;;;;4.40;1.05;;;;;;;2.77;54.43;100103.88;5070894;28;20048;-58
2022/01/17 11:40:30;;;;;;;4.97;0.57;;;;;;;2.73;54.32;100102.13;5070272;28;20055;-58
2022/01/17 11:42:58;;;;;;;3.92;0.75;;;;;;;2.72;56.58;100116.63;5067604;28;20060;-61
2022/01/17 11:45:40;;;;;;;2.72;0.75;;;;;;;2.64;53.86;100135.28;5067885;28;20102;-57
2022/01/17 11:48:22;;;;;;;5.78;0.90;;;;;;;2.63;54.73;100148.91;5070055;28;20482;-60
2022/01/17 11:50:52;;;;;;;2.97;0.68;;;;;;;2.62;55.93;100127.56;5073126;28;20055;-59
2022/01/17 11:53:45;;;;;;;5.18;1.00;;;;;;;2.63;55.75;100149.75;5070531;28;20052;-59
2022/01/17 11:56:16;;;;;;;4.60;0.88;;;;;;;2.62;56.40;100152.31;5068233;28;20063;-57
2022/01/17 11:58:45;;;;;;;3.17;0.80;;;;;;;2.59;56.55;100165.88;5071509;28;20446;-58
2022/01/17 12:01:20;;;;;;;5.32;1.23;;;;;;;2.60;59.23;100174.41;5070869;28;20071;-57
2022/01/17 12:03:49;;;;;;;3.80;0.77;;;;;;;2.61;59.76;100188.97;5070357;28;20093;-57